Upstream stations:
Downstream station:
SHEF ID: CASK1 NF NINNESCAH R AB CHENEY RE, KS
STATION TYPE:
PRECIP STAGE RIV-FLOW DIS-OXY PH CONDUCT AIR-TEMP BAT-LOAD
in ft cfs mg/l su umho/cm F volt
Ccp-Rev Ccp-Rev Ccp-Rev Ccp-Rev Ccp-Rev Ccp-Rev Ccp-Rev Ccp-Rev
(US/Central)
09/03 00:00 0.00 5.96 41 ---- ---- ---- ---- 12.57
09/03 01:00 0.00 5.96 41 ---- ---- ---- ---- 12.57
09/03 02:00 0.00 5.96 41 ---- ---- ---- ---- 12.57
09/03 03:00 0.07 5.99 45 ---- ---- ---- ---- 12.57
09/03 04:00 0.13 6.01 47 ---- ---- ---- ---- 12.49
09/03 05:00 0.00 6.00 46 ---- ---- ---- ---- 12.49
09/03 06:00 0.00 5.98 44 ---- ---- ---- ---- 12.49
09/03 07:00 0.00 5.98 44 ---- ---- ---- ---- 12.49
09/03 08:00 0.00 5.97 43 ---- ---- ---- ---- 12.49
09/03 09:00 0.00 5.96 41 ---- ---- ---- ---- 12.97
09/03 10:00 0.00 5.96 41 ---- ---- ---- ---- 13.53
09/03 11:00 0.00 5.96 41 ---- ---- ---- ---- 13.60
09/03 12:00 0.00 5.96 41 ---- ---- ---- ---- 13.37
09/03 13:00 0.00 5.95 40 ---- ---- ---- ---- 13.68
09/03 14:00 0.00 5.95 40 ---- ---- ---- ---- 13.44
09/03 15:00 0.00 5.95 40 ---- ---- ---- ---- 13.37
09/03 16:00 0.00 5.94 39 ---- ---- ---- ---- 13.29
09/03 17:00 0.00 5.93 38 ---- ---- ---- ---- 13.29
09/03 18:00 0.00 5.93 38 ---- ---- ---- ---- 13.21
09/03 19:00 0.00 5.93 38 ---- ---- ---- ---- 12.97
09/03 20:00 0.07 5.93 38 ---- ---- ---- ---- 12.65
09/03 21:00 0.04 5.93 38 ---- ---- ---- ---- 12.65
09/03 22:00 0.00 5.93 38 ---- ---- ---- ---- 12.65
09/03 23:00 0.00 5.93 38 ---- ---- ---- ---- 12.65